Time;durP1;ratioP1;P1;durP2;ratioP2;P2;SDS_P1;SDS_P2;PMS_P1;PMS_P2;Temp;Humidity;BMP_temperature;BMP_pressure;BME280_temperature;BME280_humidity;BME280_pressure;Samples;Min_cycle;Max_cycle;Signal;HPM_P1;HPM_P2
2021/03/24 00:01:04;;;;;;;28.97;19.93;;;;;;;2.44;65.30;99850.72;5073648;28;40777;-75
2021/03/24 00:03:31;;;;;;;36.23;22.63;;;;;;;2.40;65.41;99846.41;5101650;28;42777;-75
2021/03/24 00:05:58;;;;;;;28.37;19.47;;;;;;;2.32;65.49;99836.94;5093418;28;41931;-75
2021/03/24 00:08:25;;;;;;;27.10;19.43;;;;;;;2.27;65.52;99837.00;5111014;28;40755;-75
2021/03/24 00:10:53;;;;;;;29.37;19.13;;;;;;;2.28;65.43;99849.19;5110938;28;41616;-74
2021/03/24 00:13:20;;;;;;;32.23;21.17;;;;;;;2.24;65.55;99842.25;5076303;28;42101;-75
2021/03/24 00:15:47;;;;;;;30.70;19.70;;;;;;;2.22;65.63;99843.19;5111139;28;42115;-74
2021/03/24 00:18:15;;;;;;;30.33;21.80;;;;;;;2.20;65.75;99844.97;5093632;28;38915;-75
2021/03/24 00:20:43;;;;;;;34.43;20.73;;;;;;;2.15;65.75;99843.25;5092537;28;40886;-74
2021/03/24 00:23:12;;;;;;;30.30;20.37;;;;;;;2.14;65.96;99851.09;5111019;28;43429;-75
2021/03/24 00:25:40;;;;;;;31.27;19.97;;;;;;;2.10;65.94;99845.03;5092816;28;41401;-75
2021/03/24 00:28:09;;;;;;;30.03;19.73;;;;;;;2.05;66.21;99846.00;5092757;28;41425;-75
2021/03/24 00:30:40;;;;;;;36.47;21.90;;;;;;;2.02;66.06;99856.47;5111009;28;41984;-75
2021/03/24 00:33:08;;;;;;;32.77;21.47;;;;;;;1.99;66.15;99853.91;5076286;28;42838;-74
2021/03/24 00:35:35;;;;;;;28.43;19.13;;;;;;;1.96;66.26;99847.00;5092835;28;41973;-75
2021/03/24 00:38:02;;;;;;;33.00;21.50;;;;;;;1.92;66.42;99845.28;5110368;28;40065;-75
2021/03/24 00:40:33;;;;;;;32.23;20.87;;;;;;;1.82;66.64;99830.63;5110894;28;41651;-75
2021/03/24 00:43:00;;;;;;;33.70;22.63;;;;;;;1.79;66.39;99836.72;5110764;28;43294;-75
2021/03/24 00:45:28;;;;;;;39.57;24.63;;;;;;;1.82;66.66;99838.44;5092650;28;41898;-74
2021/03/24 00:47:55;;;;;;;32.93;21.27;;;;;;;1.74;66.75;99835.03;5076248;28;40018;-75
2021/03/24 00:50:25;;;;;;;33.33;20.80;;;;;;;1.78;66.68;99842.84;5091993;28;41797;-75
2021/03/24 00:52:52;;;;;;;30.63;21.07;;;;;;;1.76;66.51;99848.94;5092633;28;42875;-75
2021/03/24 00:55:19;;;;;;;31.77;20.50;;;;;;;1.74;66.70;99838.53;5093378;28;41994;-75
2021/03/24 00:57:47;;;;;;;27.30;17.77;;;;;;;1.79;66.72;99844.56;5092325;28;40047;-75
2021/03/24 01:00:17;;;;;;;28.73;19.13;;;;;;;1.69;66.53;99829.88;5110406;28;41591;-74
2021/03/24 01:02:45;;;;;;;27.97;19.80;;;;;;;1.86;66.62;99839.25;5075893;28;42743;-75
2021/03/24 01:05:14;;;;;;;30.43;20.33;;;;;;;1.88;66.52;99837.50;5091764;28;42316;-74
2021/03/24 01:07:42;;;;;;;29.27;20.27;;;;;;;1.87;66.38;99835.75;5110625;28;39967;-75
2021/03/24 01:10:13;;;;;;;29.60;19.97;;;;;;;1.86;66.59;99834.03;5092064;28;41928;-75
2021/03/24 01:12:40;;;;;;;30.27;20.27;;;;;;;1.82;66.99;99827.13;5074358;28;42871;-75
2021/03/24 01:15:10;;;;;;;28.60;18.83;;;;;;;1.78;66.72;99828.91;5109552;28;42977;-75
2021/03/24 01:17:37;;;;;;;30.60;20.50;;;;;;;1.74;66.77;99825.47;5110047;28;40917;-75
2021/03/24 01:20:06;;;;;;;33.17;20.10;;;;;;;1.70;67.10;99826.41;5109631;28;42496;-75
2021/03/24 01:22:33;;;;;;;37.20;22.67;;;;;;;1.67;66.89;99830.78;5110002;28;43501;-74
2021/03/24 01:25:00;;;;;;;31.17;19.80;;;;;;;1.63;66.89;99827.34;5075307;28;42192;-74
2021/03/24 01:27:27;;;;;;;33.03;20.20;;;;;;;1.61;67.24;99833.44;5092324;28;38967;-75
2021/03/24 01:29:54;;;;;;;33.43;20.17;;;;;;;1.49;67.11;99813.56;5109737;28;42506;-74
2021/03/24 01:32:22;;;;;;;36.53;23.30;;;;;;;1.55;67.46;99826.56;5092343;28;43263;-74
2021/03/24 01:34:49;;;;;;;31.23;21.27;;;;;;;1.53;67.16;99819.63;5091483;28;42262;-75
2021/03/24 01:37:16;;;;;;;36.13;21.67;;;;;;;1.50;67.35;99823.13;5109671;28;40858;-75
2021/03/24 01:39:43;;;;;;;34.57;20.53;;;;;;;1.46;67.35;99824.06;5075466;28;40764;-75
2021/03/24 01:42:11;;;;;;;32.90;20.03;;;;;;;1.41;67.22;99818.88;5109949;28;43104;-74
2021/03/24 01:45:00;;;;;;;33.10;20.43;;;;;;;1.39;67.33;99811.94;5075583;28;41466;-75
2021/03/24 01:47:30;;;;;;;35.20;22.10;;;;;;;1.29;67.33;99805.94;5109725;28;40012;-75
2021/03/24 01:49:57;;;;;;;35.90;21.07;;;;;;;1.31;67.58;99813.75;5090683;28;40844;-74
2021/03/24 01:52:25;;;;;;;35.33;20.70;;;;;;;1.26;67.52;99815.53;5090228;28;42176;-75
2021/03/24 01:54:53;;;;;;;32.10;20.50;;;;;;;1.24;67.63;99812.94;5090003;28;41971;-74
2021/03/24 01:57:23;;;;;;;27.07;18.03;;;;;;;1.19;68.06;99806.91;5108052;28;39664;-74
2021/03/24 01:59:52;;;;;;;31.07;19.80;;;;;;;1.21;68.05;99810.38;5090061;28;41332;-74
2021/03/24 02:02:22;;;;;;;31.13;20.10;;;;;;;1.19;67.93;99813.88;5073826;28;42901;-74
2021/03/24 02:04:51;;;;;;;29.07;18.60;;;;;;;1.17;68.33;99813.03;5108874;28;42044;-74
2021/03/24 02:07:23;;;;;;;34.87;21.10;;;;;;;1.18;68.12;99817.38;5109743;28;40911;-75
2021/03/24 02:10:02;;;;;;;34.57;20.33;;;;;;;1.17;68.32;99820.84;5091680;28;41353;-74
2021/03/24 02:12:35;;;;;;;33.93;19.63;;;;;;;1.13;68.33;99820.00;5109423;28;43553;-74
2021/03/24 02:15:08;;;;;;;30.67;20.10;;;;;;;1.04;68.62;99810.53;5092414;28;40956;-75
2021/03/24 02:17:39;;;;;;;29.70;19.90;;;;;;;1.12;68.48;99820.88;5071602;28;39675;-74
2021/03/24 02:20:13;;;;;;;31.07;19.27;;;;;;;1.12;68.68;99820.88;5055231;28;42059;-74
2021/03/24 02:22:46;;;;;;;31.53;19.70;;;;;;;1.11;68.59;99815.72;5080071;28;42709;-75
2021/03/24 02:25:20;;;;;;;29.63;18.50;;;;;;;1.10;68.78;99806.16;5092884;28;41114;-74
2021/03/24 02:27:52;;;;;;;29.40;19.37;;;;;;;1.08;68.66;99806.16;5113368;28;39945;-74
2021/03/24 02:30:25;;;;;;;26.50;17.57;;;;;;;1.05;68.63;99811.41;5078899;28;40614;-75
2021/03/24 02:32:56;;;;;;;27.10;18.27;;;;;;;0.96;68.49;99801.91;5074768;28;43408;-75
2021/03/24 02:35:31;;;;;;;27.00;16.70;;;;;;;0.96;68.46;99807.13;5075221;28;41225;-75
2021/03/24 02:37:59;;;;;;;31.33;19.73;;;;;;;0.97;68.51;99808.88;5077906;28;39388;-74
2021/03/24 02:40:29;;;;;;;31.60;20.80;;;;;;;0.93;68.41;99809.75;5094312;28;42816;-74
2021/03/24 02:42:59;;;;;;;27.40;17.90;;;;;;;0.90;68.30;99811.53;5112926;28;42715;-74
2021/03/24 02:45:29;;;;;;;24.63;16.87;;;;;;;0.87;68.44;99807.19;5112312;28;42964;-74
2021/03/24 02:47:59;;;;;;;28.20;17.47;;;;;;;0.82;68.52;99809.00;5112662;28;39945;-75
2021/03/24 02:50:27;;;;;;;31.30;19.53;;;;;;;0.79;68.44;99801.19;5095368;28;41138;-75
2021/03/24 02:52:55;;;;;;;28.10;17.40;;;;;;;0.73;68.47;99803.84;5112953;28;42465;-75
2021/03/24 02:55:22;;;;;;;30.37;18.77;;;;;;;0.70;68.46;99798.66;5077704;28;41274;-75
2021/03/24 02:57:50;;;;;;;28.73;18.00;;;;;;;0.69;68.41;99803.00;5112725;28;41671;-74
2021/03/24 03:00:22;;;;;;;29.40;17.93;;;;;;;0.70;68.77;99806.47;5095268;28;40734;-75
2021/03/24 03:02:53;;;;;;;29.10;20.00;;;;;;;0.69;68.63;99807.34;5095699;28;41640;-75
2021/03/24 03:05:25;;;;;;;32.70;20.97;;;;;;;0.69;68.89;99807.34;5112723;28;41475;-74
2021/03/24 03:07:56;;;;;;;30.90;19.20;;;;;;;0.68;68.99;99806.50;5094469;28;41118;-75
2021/03/24 03:10:31;;;;;;;31.03;19.90;;;;;;;0.67;68.99;99801.28;5094732;28;42260;-75
2021/03/24 03:13:05;;;;;;;28.03;18.13;;;;;;;0.57;69.39;99779.63;5112052;28;42390;-74
2021/03/24 03:15:37;;;;;;;28.97;18.03;;;;;;;0.66;69.24;99799.56;5112011;28;42283;-74
2021/03/24 03:18:08;;;;;;;28.17;18.07;;;;;;;0.62;69.39;99795.22;5095269;28;39197;-74
2021/03/24 03:20:40;;;;;;;26.30;16.90;;;;;;;0.63;69.30;99804.78;5094143;28;42044;-75
2021/03/24 03:23:11;;;;;;;30.60;18.50;;;;;;;0.61;69.04;99804.81;5112033;28;42468;-75
2021/03/24 03:25:42;;;;;;;29.83;19.03;;;;;;;0.54;69.33;99786.59;5112630;28;42079;-74
2021/03/24 03:28:12;;;;;;;31.60;18.90;;;;;;;0.59;69.26;99800.47;5093652;28;40455;-75
2021/03/24 03:30:42;;;;;;;30.63;18.00;;;;;;;0.59;69.35;99805.69;5094762;28;41605;-74
2021/03/24 03:33:12;;;;;;;34.83;21.40;;;;;;;0.59;69.52;99800.47;5093978;28;42571;-74
2021/03/24 03:35:40;;;;;;;38.53;22.60;;;;;;;0.56;69.42;99796.16;5111910;28;42194;-75
2021/03/24 03:38:17;;;;;;;31.37;20.53;;;;;;;0.56;69.80;99800.50;5092218;28;40537;-75
2021/03/24 03:40:46;;;;;;;30.00;19.03;;;;;;;0.53;69.58;99803.13;5111700;28;42870;-75
2021/03/24 03:43:16;;;;;;;26.83;18.67;;;;;;;0.39;69.55;99778.88;5093722;28;43318;-75
2021/03/24 03:45:48;;;;;;;33.30;20.77;;;;;;;0.50;69.65;99803.13;5111102;28;41584;-75
2021/03/24 03:48:19;;;;;;;30.37;18.13;;;;;;;0.42;69.50;99799.72;5112226;28;41002;-74
2021/03/24 03:50:49;;;;;;;31.63;17.80;;;;;;;0.44;69.69;99800.59;5112348;28;41528;-75
2021/03/24 03:53:24;;;;;;;28.57;18.27;;;;;;;0.41;69.52;99800.59;5111301;28;42511;-75
2021/03/24 03:56:00;;;;;;;31.43;19.53;;;;;;;0.38;69.46;99805.81;5074221;28;41566;-75
2021/03/24 03:58:36;;;;;;;32.17;19.83;;;;;;;0.37;69.56;99804.13;5057455;28;40042;-75
2021/03/24 04:01:12;;;;;;;27.23;16.83;;;;;;;0.34;69.80;99800.66;5093278;27;42335;-75
2021/03/24 04:03:45;;;;;;;25.47;17.17;;;;;;;0.23;69.85;99776.41;5113750;27;43540;-75
2021/03/24 04:06:19;;;;;;;31.57;19.20;;;;;;;0.33;69.75;99798.91;5132509;27;42085;-75
2021/03/24 04:08:48;;;;;;;28.33;17.87;;;;;;;0.31;69.81;99795.44;5109559;28;40731;-75
2021/03/24 04:11:19;;;;;;;32.17;20.03;;;;;;;0.30;69.92;99796.31;5094136;28;41044;-74
2021/03/24 04:13:52;;;;;;;29.87;19.43;;;;;;;0.29;69.80;99807.63;5093811;28;41855;-74
2021/03/24 04:16:20;;;;;;;34.20;19.70;;;;;;;0.28;69.96;99810.22;5094091;28;41880;-75
2021/03/24 04:18:52;;;;;;;31.53;19.40;;;;;;;0.27;70.00;99811.97;5093325;28;39806;-75
2021/03/24 04:21:21;;;;;;;34.33;20.03;;;;;;;0.24;69.96;99809.41;5094029;28;41640;-74
2021/03/24 04:23:52;;;;;;;36.50;20.33;;;;;;;0.24;70.16;99814.59;5093248;28;43551;-75
2021/03/24 04:26:23;;;;;;;28.80;18.80;;;;;;;0.22;70.01;99818.97;5111558;28;43174;-74
2021/03/24 04:28:55;;;;;;;27.93;18.67;;;;;;;0.20;69.95;99815.50;5094075;28;39036;-75
2021/03/24 04:31:26;;;;;;;29.60;18.10;;;;;;;0.18;70.15;99822.44;5094320;28;42139;-74
2021/03/24 04:33:54;;;;;;;28.50;18.17;;;;;;;0.11;70.02;99818.16;5111394;28;42759;-74
2021/03/24 04:36:26;;;;;;;25.00;16.57;;;;;;;0.10;69.99;99819.03;5072539;28;41237;-74
2021/03/24 04:38:58;;;;;;;30.57;18.93;;;;;;;0.14;69.99;99828.53;5103012;28;40736;-74
2021/03/24 04:41:29;;;;;;;28.60;17.00;;;;;;;0.04;69.85;99819.03;5094109;28;40595;-74
2021/03/24 04:44:01;;;;;;;29.63;18.13;;;;;;;0.10;69.99;99832.03;5092499;28;43469;-75
2021/03/24 04:46:34;;;;;;;26.33;15.70;;;;;;;0.08;69.96;99833.78;5077135;28;42099;-75
2021/03/24 04:49:04;;;;;;;31.67;19.27;;;;;;;0.08;69.99;99832.91;5091935;28;40069;-74
2021/03/24 04:51:34;;;;;;;29.30;18.60;;;;;;;0.05;70.15;99831.19;5097088;28;42496;-75
2021/03/24 04:54:09;;;;;;;30.83;18.17;;;;;;;0.04;70.02;99832.06;5104519;28;42655;-75
2021/03/24 04:56:40;;;;;;;30.60;19.27;;;;;;;-0.04;70.04;99829.50;5089248;28;41581;-75
2021/03/24 04:59:10;;;;;;;36.37;20.63;;;;;;;0.03;69.93;99835.53;5104679;28;41184;-75
2021/03/24 05:01:43;;;;;;;28.20;18.03;;;;;;;0.01;70.44;99832.06;5103710;28;42002;-74
2021/03/24 05:04:18;;;;;;;28.87;16.47;;;;;;;0.03;70.42;99829.47;5104567;28;42636;-74
2021/03/24 05:06:50;;;;;;;31.13;18.67;;;;;;;0.03;70.49;99835.53;5094183;28;42423;-75
2021/03/24 05:09:17;;;;;;;30.70;19.37;;;;;;;0.03;70.46;99840.75;5076333;28;40224;-74
2021/03/24 05:11:49;;;;;;;31.20;18.70;;;;;;;0.04;70.53;99834.66;5092258;28;42448;-74
2021/03/24 05:14:25;;;;;;;40.40;21.53;;;;;;;0.01;70.49;99837.28;5076183;28;41689;-74
2021/03/24 05:17:06;;;;;;;31.57;18.80;;;;;;;0.04;70.49;99839.88;5093197;28;41286;-75
2021/03/24 05:19:33;;;;;;;33.50;19.67;;;;;;;0.04;70.50;99837.28;5076504;28;39110;-74
2021/03/24 05:22:08;;;;;;;32.60;19.33;;;;;;;0.06;70.38;99840.72;5092683;28;41374;-74
2021/03/24 05:24:39;;;;;;;38.57;22.70;;;;;;;0.03;70.37;99830.31;5110272;28;42580;-75
2021/03/24 05:27:15;;;;;;;33.10;20.30;;;;;;;0.06;70.55;99843.34;5110747;28;42376;-75
2021/03/24 05:29:46;;;;;;;31.47;18.00;;;;;;;0.07;70.45;99845.06;5110400;28;41494;-75
2021/03/24 05:32:20;;;;;;;32.90;20.50;;;;;;;0.09;70.39;99840.72;5092951;28;41059;-74
2021/03/24 05:34:50;;;;;;;29.93;17.53;;;;;;;0.11;70.68;99840.72;5109923;28;42651;-75
2021/03/24 05:37:18;;;;;;;32.17;19.77;;;;;;;0.14;71.01;99836.34;5110281;28;41548;-74
2021/03/24 05:39:46;;;;;;;30.53;19.17;;;;;;;0.19;70.85;99837.19;5092558;28;39967;-74
2021/03/24 05:42:41;;;;;;;35.03;19.33;;;;;;;0.24;70.91;99838.06;5109916;28;41716;-75
2021/03/24 05:45:27;;;;;;;38.97;23.00;;;;;;;0.31;71.29;99831.94;5109626;28;42754;-75
2021/03/24 05:48:22;;;;;;;29.90;19.23;;;;;;;0.38;71.38;99837.09;5091668;28;41899;-75
2021/03/24 05:51:02;;;;;;;32.50;19.67;;;;;;;0.43;71.04;99837.94;5092481;28;40044;-74
2021/03/24 05:53:45;;;;;;;33.63;19.07;;;;;;;0.50;70.78;99847.44;5091538;28;42341;-75
2021/03/24 05:56:18;;;;;;;31.73;18.60;;;;;;;0.57;70.67;99841.31;5091541;28;42492;-75
2021/03/24 05:58:57;;;;;;;32.47;19.20;;;;;;;0.60;70.63;99841.31;5092511;28;42242;-74
2021/03/24 06:01:31;;;;;;;30.37;18.90;;;;;;;0.56;70.29;99818.75;5094552;28;40037;-75
2021/03/24 06:04:17;;;;;;;29.77;19.83;;;;;;;0.74;70.27;99842.09;5111650;28;42454;-75
2021/03/24 06:07:18;;;;;;;29.47;19.13;;;;;;;0.80;70.23;99842.03;5078616;28;41839;-75
2021/03/24 06:10:06;;;;;;;32.13;19.53;;;;;;;0.87;69.99;99845.44;5079252;28;41310;-74
2021/03/24 06:12:56;;;;;;;32.63;19.67;;;;;;;0.97;69.74;99849.72;5079234;28;39908;-75
2021/03/24 06:16:01;;;;;;;27.07;17.03;;;;;;;1.02;69.67;99840.97;5079008;28;42761;-75
2021/03/24 06:18:44;;;;;;;30.90;20.37;;;;;;;1.15;69.64;99848.69;5113341;28;43465;-75
2021/03/24 06:21:19;;;;;;;28.40;18.87;;;;;;;1.22;69.44;99847.78;5096035;28;41395;-75
2021/03/24 06:24:05;;;;;;;29.10;18.23;;;;;;;1.33;69.33;99851.16;5095063;28;41434;-75
2021/03/24 06:26:45;;;;;;;29.57;19.20;;;;;;;1.36;69.26;99840.69;5094426;28;42181;-74
2021/03/24 06:29:25;;;;;;;32.73;19.80;;;;;;;1.59;68.95;99856.97;5113706;28;42435;-75
2021/03/24 06:32:12;;;;;;;30.80;18.83;;;;;;;1.82;68.54;99848.91;5112922;28;43006;-74
2021/03/24 06:35:03;;;;;;;30.17;18.47;;;;;;;2.03;68.32;99832.97;5095861;28;39291;-74
2021/03/24 06:37:42;;;;;;;29.80;18.60;;;;;;;2.24;68.73;99852.72;5092056;28;41622;-77
2021/03/24 06:40:42;;;;;;;38.60;23.03;;;;;;;2.34;69.39;99849.13;5112957;28;43156;-76
2021/03/24 06:43:22;;;;;;;34.60;22.67;;;;;;;2.44;69.10;99849.84;5058510;28;41235;-74
2021/03/24 06:46:10;;;;;;;33.60;20.50;;;;;;;2.64;69.07;99846.94;5113362;28;39350;-75
2021/03/24 06:48:48;;;;;;;35.67;23.03;;;;;;;2.81;68.79;99847.56;5093633;28;41180;-75
2021/03/24 06:51:54;;;;;;;39.33;25.60;;;;;;;2.95;68.23;99857.81;5093379;28;41851;-74
2021/03/24 06:54:42;;;;;;;43.50;27.20;;;;;;;3.01;68.13;99853.34;5094602;28;41405;-74
2021/03/24 06:57:35;;;;;;;39.53;25.60;;;;;;;3.05;68.41;99846.31;5088961;28;39701;-75
2021/03/24 07:00:32;;;;;;;38.53;24.50;;;;;;;3.15;68.34;99855.72;5076468;28;40913;-75
2021/03/24 07:03:28;;;;;;;40.37;24.27;;;;;;;3.24;68.09;99859.06;5068290;28;43013;-77
2021/03/24 07:06:07;;;;;;;37.83;23.77;;;;;;;3.33;67.99;99863.28;5112207;28;42049;-75
2021/03/24 07:08:44;;;;;;;36.80;22.30;;;;;;;3.45;67.88;99867.44;5093417;28;39038;-75
2021/03/24 07:11:29;;;;;;;34.60;22.37;;;;;;;3.66;67.69;99868.81;5073973;28;41700;-77
2021/03/24 07:14:19;;;;;;;33.60;22.20;;;;;;;3.85;67.18;99865.81;5077317;28;43150;-76
2021/03/24 07:17:11;;;;;;;40.97;25.10;;;;;;;3.96;67.21;99869.06;5093971;28;42166;-75
2021/03/24 07:19:58;;;;;;;39.47;25.50;;;;;;;4.12;67.19;99868.78;5073784;28;41000;-74
2021/03/24 07:22:57;;;;;;;37.60;25.17;;;;;;;4.30;66.82;99873.66;5079755;28;41842;-75
2021/03/24 07:25:40;;;;;;;36.93;25.63;;;;;;;4.84;66.71;99870.69;5109925;28;43388;-75
2021/03/24 07:28:27;;;;;;;39.00;26.40;;;;;;;6.16;66.27;99859.44;5092178;28;42698;-75
2021/03/24 07:31:13;;;;;;;39.73;26.13;;;;;;;7.67;64.05;99870.44;5111366;28;39758;-75
2021/03/24 07:33:48;;;;;;;37.93;25.13;;;;;;;8.78;61.44;99875.13;5110387;28;42237;-76
2021/03/24 07:36:39;;;;;;;35.97;23.40;;;;;;;9.95;57.79;99885.28;5092815;28;43469;-76
2021/03/24 07:39:32;;;;;;;34.07;25.03;;;;;;;11.46;53.79;99902.97;5076674;28;42406;-76
2021/03/24 07:42:44;;;;;;;31.73;24.67;;;;;;;12.96;49.38;99883.56;5072675;28;39709;-78
2021/03/24 07:45:37;;;;;;;30.67;24.13;;;;;;;14.39;46.03;99909.75;5073767;28;42788;-76
2021/03/24 07:48:34;;;;;;;34.70;25.93;;;;;;;16.69;40.71;99964.91;5093475;28;43690;-75
2021/03/24 07:51:12;;;;;;;31.77;25.73;;;;;;;18.79;37.24;99973.34;5093300;28;42953;-78
2021/03/24 07:53:49;;;;;;;28.23;24.57;;;;;;;20.61;34.31;99973.53;5093698;28;39756;-77
2021/03/24 07:56:27;;;;;;;28.87;24.80;;;;;;;22.34;31.45;99994.81;5069833;28;40588;-74
2021/03/24 07:59:27;;;;;;;28.43;25.53;;;;;;;23.52;29.51;100014.13;5072082;28;43757;-75
2021/03/24 08:02:11;;;;;;;28.80;25.27;;;;;;;23.91;28.76;100001.22;5087756;28;42237;-75
2021/03/24 08:05:00;;;;;;;28.53;24.33;;;;;;;24.48;26.74;100023.47;5093112;28;40556;-76
2021/03/24 08:07:34;;;;;;;28.63;25.20;;;;;;;24.57;27.45;100011.69;5090282;28;42201;-76
2021/03/24 08:10:23;;;;;;;26.60;23.80;;;;;;;22.96;28.20;100009.66;5093297;28;42824;-76
2021/03/24 08:13:07;;;;;;;34.50;24.00;;;;;;;21.73;29.54;99996.84;5092498;28;42465;-75
2021/03/24 08:15:59;;;;;;;28.57;24.40;;;;;;;20.59;30.38;99991.66;5110898;28;41492;-75
2021/03/24 08:18:49;;;;;;;26.77;22.67;;;;;;;20.29;29.60;99989.72;5070156;28;40767;-78
2021/03/24 08:21:26;;;;;;;26.33;23.50;;;;;;;20.69;29.56;99991.72;5072969;28;42675;-75
2021/03/24 08:24:12;;;;;;;28.13;23.47;;;;;;;21.99;28.78;99991.81;5055770;28;41332;-76
2021/03/24 08:26:45;;;;;;;24.93;22.23;;;;;;;23.01;27.14;99977.63;5086411;28;40882;-76
2021/03/24 08:29:20;;;;;;;32.70;25.77;;;;;;;24.49;26.25;100009.75;5107483;28;42083;-76
2021/03/24 08:32:19;;;;;;;25.70;23.10;;;;;;;25.65;24.43;100016.63;5106441;28;42502;-76
2021/03/24 08:35:20;;;;;;;26.47;23.70;;;;;;;25.14;23.85;100026.53;5075357;28;42127;-75
2021/03/24 08:38:05;;;;;;;30.03;27.03;;;;;;;25.16;24.20;100013.66;5110982;28;40104;-76
2021/03/24 08:40:42;;;;;;;25.83;23.23;;;;;;;25.32;23.56;100013.75;5111138;28;42430;-74
2021/03/24 08:43:27;;;;;;;26.97;24.27;;;;;;;26.15;23.23;100018.44;5092792;28;41879;-76
2021/03/24 08:45:59;;;;;;;27.40;24.63;;;;;;;27.51;22.45;100021.25;5093428;28;42514;-75
2021/03/24 08:48:37;;;;;;;25.50;23.03;;;;;;;29.09;21.07;100026.13;5091292;28;40280;-77
2021/03/24 08:51:16;;;;;;;27.57;22.30;;;;;;;30.20;20.10;100026.81;5092224;28;41892;-77
2021/03/24 08:53:56;;;;;;;23.00;20.90;;;;;;;31.12;18.95;100034.22;5092208;28;42704;-78
2021/03/24 08:56:35;;;;;;;22.80;20.80;;;;;;;31.50;17.89;100038.25;5110703;28;42165;-77
2021/03/24 08:59:17;;;;;;;23.77;21.53;;;;;;;31.58;18.22;100024.38;5109342;28;40091;-77
2021/03/24 09:01:56;;;;;;;23.73;21.53;;;;;;;32.40;17.54;100024.28;5092975;28;42328;-77
2021/03/24 09:05:09;;;;;;;24.50;22.20;;;;;;;32.72;16.15;100044.63;5110926;28;43428;-77
2021/03/24 09:08:13;;;;;;;21.40;19.50;;;;;;;31.27;17.87;100029.50;5107035;28;41895;-78
2021/03/24 09:10:53;;;;;;;22.63;20.50;;;;;;;31.26;17.91;100025.06;5090240;28;40485;-77
2021/03/24 09:13:27;;;;;;;21.77;19.73;;;;;;;31.74;17.59;100012.28;5090574;28;42526;-75
2021/03/24 09:16:27;;;;;;;19.93;18.30;;;;;;;32.82;16.00;100020.34;5076007;28;41720;-76
2021/03/24 09:19:05;;;;;;;24.88;22.73;;;;;;;34.34;15.05;100022.66;5090103;28;41959;-76
2021/03/24 09:21:41;;;;;;;22.55;20.55;;;;;;;35.04;14.78;100026.13;5075868;28;39045;-75
2021/03/24 09:24:41;;;;;;;19.15;17.45;;;;;;;34.30;14.95;100021.41;5109772;28;42268;-77
2021/03/24 09:27:38;;;;;;;22.25;20.25;;;;;;;34.21;14.77;100011.72;5088152;28;43263;-77
2021/03/24 09:30:31;;;;;;;21.77;19.87;;;;;;;33.36;15.23;100001.94;5104043;28;44162;-77
2021/03/24 09:33:13;;;;;;;21.37;18.10;;;;;;;33.30;15.32;100002.78;5075656;28;39041;-78
2021/03/24 09:35:46;;;;;;;21.73;19.63;;;;;;;32.78;15.89;99999.00;5090989;28;41474;-78
2021/03/24 09:38:19;;;;;;;21.17;19.33;;;;;;;32.61;15.58;100000.47;5074970;28;41797;-77
2021/03/24 09:40:52;;;;;;;20.27;18.47;;;;;;;32.41;15.63;100003.19;5109397;28;42271;-76
2021/03/24 09:43:25;;;;;;;21.10;19.10;;;;;;;31.87;16.11;99979.44;5108377;28;40800;-77
2021/03/24 09:46:01;;;;;;;21.17;19.27;;;;;;;30.86;16.99;99991.06;5092088;28;40745;-75
2021/03/24 09:48:29;;;;;;;23.30;21.30;;;;;;;30.64;16.65;99973.88;5091128;28;42762;-75
2021/03/24 09:51:06;;;;;;;21.70;19.80;;;;;;;30.29;16.64;99990.13;5091524;28;41739;-75
2021/03/24 09:53:39;;;;;;;22.43;20.33;;;;;;;29.77;17.54;99974.00;5091164;28;38996;-75
2021/03/24 09:56:13;;;;;;;22.90;20.90;;;;;;;29.31;18.45;99959.72;5107250;28;41437;-76
2021/03/24 09:59:00;;;;;;;21.93;19.93;;;;;;;29.15;18.28;99951.75;5089576;28;43424;-75
2021/03/24 10:01:40;;;;;;;20.67;18.70;;;;;;;29.40;18.06;99957.78;5090775;28;41966;-77
2021/03/24 10:04:19;;;;;;;21.07;19.07;;;;;;;28.97;17.86;99970.34;5108962;28;40999;-76
2021/03/24 10:06:58;;;;;;;18.90;17.13;;;;;;;29.14;18.68;99944.59;5109072;28;41481;-76
2021/03/24 10:09:29;;;;;;;20.07;18.13;;;;;;;29.95;17.83;99944.34;5107992;28;42885;-77
2021/03/24 10:12:09;;;;;;;22.43;20.13;;;;;;;30.48;17.61;99954.97;5073632;28;42698;-75
2021/03/24 10:14:44;;;;;;;22.63;20.33;;;;;;;30.92;16.37;99958.25;5105640;28;40031;-77
2021/03/24 10:17:18;;;;;;;20.00;18.10;;;;;;;30.98;17.11;99954.75;5108756;28;41708;-77
2021/03/24 10:19:50;;;;;;;20.13;18.23;;;;;;;30.38;17.89;99940.78;5073187;28;41856;-75
2021/03/24 10:22:23;;;;;;;19.97;18.17;;;;;;;30.48;17.81;99944.03;5090977;28;42173;-76
2021/03/24 10:25:00;;;;;;;21.07;19.17;;;;;;;31.34;16.41;99945.50;5108103;28;39791;-76
2021/03/24 10:27:31;;;;;;;19.93;18.20;;;;;;;32.22;15.63;99954.66;5069558;28;42207;-76
2021/03/24 10:30:07;;;;;;;18.20;16.50;;;;;;;32.77;15.51;99947.94;5069798;28;42678;-76
2021/03/24 10:32:39;;;;;;;17.70;16.00;;;;;;;33.55;14.85;99957.03;5070216;28;42673;-80
2021/03/24 10:35:17;;;;;;;18.73;17.03;;;;;;;33.74;14.08;99953.38;5068040;28;40782;-77
2021/03/24 10:37:50;;;;;;;19.83;17.83;;;;;;;33.64;14.85;99950.22;5088368;28;41484;-79
2021/03/24 10:40:24;;;;;;;18.33;16.70;;;;;;;33.51;15.32;99934.66;5103260;28;43607;-78
2021/03/24 10:42:58;;;;;;;18.07;16.30;;;;;;;33.16;14.99;99942.38;5086565;28;41216;-76
2021/03/24 10:45:30;;;;;;;19.30;17.57;;;;;;;33.49;14.96;99938.69;5087838;28;39896;-78
2021/03/24 10:48:08;;;;;;;19.10;17.33;;;;;;;33.93;14.36;99937.84;5108908;28;41932;-78
2021/03/24 10:50:39;;;;;;;16.55;15.15;;;;;;;35.02;14.07;99953.91;5093277;28;43448;-79
2021/03/24 10:53:24;;;;;;;18.73;17.20;;;;;;;35.62;13.44;99943.06;5111857;28;41917;-77
2021/03/24 10:56:03;;;;;;;18.55;17.00;;;;;;;36.53;13.24;99951.09;5111444;28;41359;-80
2021/03/24 10:58:49;;;;;;;18.65;17.13;;;;;;;37.49;12.22;99951.66;5111487;28;41447;-77
2021/03/24 11:01:24;;;;;;;17.35;15.73;;;;;;;38.28;12.42;99930.56;5116755;27;42685;-76
2021/03/24 11:04:12;;;;;;;18.70;16.92;;;;;;;39.07;11.85;99939.63;5112564;27;42181;-76
2021/03/24 11:06:48;;;;;;;17.90;16.30;;;;;;;39.70;10.93;99933.50;5093693;28;40404;-77
2021/03/24 11:09:19;;;;;;;15.57;14.18;;;;;;;40.22;11.09;99919.91;5111174;28;42340;-77
2021/03/24 11:11:52;;;;;;;17.85;16.25;;;;;;;40.48;10.68;99917.38;5093355;28;41826;-78
2021/03/24 11:14:23;;;;;;;18.15;16.55;;;;;;;40.42;10.38;99921.22;5093459;28;41438;-79
2021/03/24 11:16:59;;;;;;;15.52;14.18;;;;;;;39.82;10.91;99908.38;5112410;28;40736;-78
2021/03/24 11:19:30;;;;;;;17.88;16.48;;;;;;;39.02;11.51;99912.66;5110450;28;42042;-76
2021/03/24 11:22:06;;;;;;;18.95;17.35;;;;;;;39.10;11.91;99894.75;5112569;28;43602;-80
2021/03/24 11:24:48;;;;;;;18.02;16.60;;;;;;;40.16;10.99;99890.44;5107928;28;43033;-77
2021/03/24 11:27:20;;;;;;;16.90;15.40;;;;;;;40.84;10.69;99893.47;5111816;28;39785;-77
2021/03/24 11:29:55;;;;;;;17.83;16.17;;;;;;;41.40;10.41;99888.22;5111833;28;41568;-76
2021/03/24 11:32:30;;;;;;;18.38;16.65;;;;;;;41.36;10.17;99896.25;5093309;28;43139;-77
2021/03/24 11:35:07;;;;;;;19.75;18.10;;;;;;;41.47;9.82;99895.19;5092698;28;41531;-76
2021/03/24 11:37:42;;;;;;;17.30;15.73;;;;;;;41.58;10.00;99883.00;5109992;28;40746;-76
2021/03/24 11:40:22;;;;;;;18.15;16.65;;;;;;;41.23;9.72;99885.66;5093629;28;40774;-76
2021/03/24 11:42:56;;;;;;;18.40;16.90;;;;;;;39.45;11.02;99875.81;5106937;28;42619;-77
2021/03/24 11:45:27;;;;;;;17.95;16.45;;;;;;;37.80;12.35;99862.72;5111521;28;41962;-77
2021/03/24 11:48:23;;;;;;;20.67;18.87;;;;;;;36.81;12.85;99856.53;5093347;28;40926;-77
2021/03/24 11:51:04;;;;;;;20.33;18.42;;;;;;;37.86;12.35;99853.44;5051883;28;41769;-78
2021/03/24 11:53:44;;;;;;;17.67;16.20;;;;;;;38.75;11.65;99865.44;5090827;28;42751;-76
2021/03/24 11:56:22;;;;;;;22.10;20.20;;;;;;;39.40;10.82;99872.13;5096582;28;42687;-76
2021/03/24 11:58:56;;;;;;;17.10;15.60;;;;;;;39.73;10.78;99862.78;5106620;27;40676;-76
2021/03/24 12:01:47;;;;;;;19.17;17.55;;;;;;;39.83;10.91;99852.63;5093000;28;42236;-77
2021/03/24 12:04:35;;;;;;;21.15;19.27;;;;;;;40.13;10.34;99854.03;5092039;28;42708;-76